Предлагаем Вашему вниманию английскую версию страницы: AUTOTAF.ME 35042 - aviation weather forecast Zabelovka

AUTOTAF 35042 - авиапрогноз Забеловка

Сегодня рассвет 01:57 UTC, восход солнца 02:32 UTC,
местный полдень 07:39 UTC, заход солнца 12:46 UTC,
наступление темноты 13:21 UTC.

Краткий прогноз 35042 на 9 часов

AUTOTAF.ME 35042 212000Z 2121/2206 28007MPS 9999 BKN014    
  BECMG 2122/2200 BKN021  
  BECMG 2201/2203 BKN014  
  FM220600 30011G16MPS 9999 BKN036

Детальный прогноз 35042 на 24 часа

AUTOTAF.ME 35042 212000Z 2121/2221 28007MPS 9999 BKN014 TX03/2209Z TNM02/2221Z  
  BECMG 2122/2200 BKN021  
  BECMG 2201/2203 BKN014  
  FM220600 30011G16MPS 9999 BKN036   
  BECMG 2213/2215 29008G13MPS   
  FM222100 28005G11MPS 9999 BKN053

Подробный табличный прогноз

Время (UTC) miniAUTOTAF на 3 ч WX FZLVL
M AGL
ICE TURB Т
(°С)
Тd
(°С)
f(%) QNH
(гПа)
WIND/T
18 27005G11MPS 9999 BKN021 480 MOD FL70/FL80 MOD SFC/FL30 3 -3 63 1008 ...
21 28007MPS 9999 BKN014 270 MOD FL150/FL160 MOD SFC/FL30 2 -3 71 1008 ...
22.10.2020
00 29008G13MPS 9999 BKN021 180 MOD FL40/FL50 MOD SFC/FL30 2 -4 66 1009 ...
03 29009G14MPS 9999 BKN014 30 FBL FL40/FL120 MOD SFC/FL40 0 -5 68 1010 ...
06 30011G16MPS 9999 BKN036 50 MOD FL70/FL80 MOD SFC/FL50 2 -9 46 1012 ...
09 29010G15MPS 9999 BKN035 180 MOD FL50/FL60 MOD SFC/FL70 3 -9 40 1012 ...
12 29010G15MPS 9999 BKN037 180 FBL FL50/FL90 MOD SFC/FL50 2 -9 45 1013 ...
15 29008G13MPS 9999 BKN022 110 MOD FL40/FL50 MOD SFC/FL50 1 -7 55 1014 ...
18 29008G14MPS 9999 BKN023 SFC MOD FL40/FL110 MOD SFC/FL40 -1 -8 59 1015 ...
21 28005G11MPS 9999 BKN053 SFC MOD FL70/FL110 -2 -7 71 1015 ...
23.10.2020
00 28005G11MPS 9999 BKN009 SFC MOD FL20/FL40 MOD SFC/FL30 -3 -6 76 1017 ...
03 29005G10MPS 9999 BKN009 SFC MOD FL20/FL30 -3 -7 77 1018 ...
06 30005MPS 9999 BKN023 SFC FBL FL40/FL70 MOD SFC/FL40 0 -7 58 1019 ...
09 29005MPS 9999 BKN030 80 FBL FL50/FL60 MOD SFC/FL50 2 -9 44 1019 ...
12 26006MPS 9999 BKN035 180 FBL FL50/FL60 MOD SFC/FL50 2 -10 42 1020 ...
15 24003MPS 9999 SCT039 SFC FBL FL50/FL60 MOD FL30/FL50 -1 -9 53 1021 ...


Широта 52.3°, долгота 61.3°, высота 279 м абс.
Средняя высота рельефа местности 263 м абс.
Прогнозы обновляются четыре раза в сутки: в 02, 08, 14, 20 ч всемирного времени.


Выбрать прогноз по другой модели Забеловка
Онлайн-сводка гроз по Забеловка (для РФ и ближнего зарубежья)
Карта фактических гроз в окрестностях Забеловка
Динамические прогностические карты (ventusky.com)
Прогностическая карта высоты нижней границы облаков по Забеловка (windy.com)
Выбрать другой город

Прогноз предназначен для личного научно-познавательного использования частными лицами
и не предназначен для принятия важных решений и выполнения реальных полётов воздушных судов

При копировании или ином использовании любых материалов данного сайта ссылка на © meteocenter.asia обязательна.

0.87/1.3